| time (UTC) | temp C | wind direction | speed KPH | gust KPH | rain 1hr cm | rain 24hr cm | rain mn cm | humidity % | barometer mb |
| 20260906101506 | 32 | 100 | 4.8 | 8.0 | 0.00 | 0.00 | 0.00 | 58 | 1021.6 |
| 20260906100006 | 32 | 57 | 1.6 | 6.4 | 0.00 | 0.00 | 0.00 | 59 | 1021.5 |
| 20260906094505 | 31 | 38 | 6.4 | 9.7 | 0.00 | 0.00 | 0.00 | 62 | 1021.6 |
| 20260906093007 | 31 | 53 | 4.8 | 11.3 | 0.00 | 0.00 | 0.00 | 61 | 1021.7 |
| 20260906091505 | 30 | 79 | 6.4 | 8.0 | 0.00 | 0.00 | 0.00 | 61 | 1021.7 |
| 20260906090007 | 31 | 38 | 3.2 | 6.4 | 0.00 | 0.00 | 0.00 | 61 | 1021.8 |
| 20260906084507 | 30 | 82 | 6.4 | 11.3 | 0.00 | 0.00 | 0.00 | 61 | 1021.7 |
| 20260906083007 | 29 | 45 | 9.7 | 11.3 | 0.00 | 0.00 | 0.00 | 61 | 1021.8 |
| 20260906081504 | 28 | 48 | 8.0 | 9.7 | 0.00 | 0.00 | 0.00 | 62 | 1021.7 |
| 20260906080007 | 28 | 44 | 6.4 | 9.7 | 0.00 | 0.00 | 0.00 | 62 | 1021.7 |
| 20260906074504 | 27 | 45 | 4.8 | 6.4 | 0.00 | 0.00 | 0.00 | 63 | 1021.6 |
| 20260906073006 | 27 | 35 | 8.0 | 9.7 | 0.00 | 0.00 | 0.00 | 64 | 1021.3 |
| 20260906071505 | 26 | 43 | 6.4 | 11.3 | 0.00 | 0.00 | 0.00 | 66 | 1021.3 |
| 20260906070006 | 26 | 39 | 4.8 | 6.4 | 0.00 | 0.00 | 0.00 | 69 | 1021.2 |
| 20260906064505 | 25 | 45 | 1.6 | 3.2 | 0.00 | 0.00 | 0.00 | 74 | 1021.2 |
| 20260906063007 | 23 | 23 | 0.0 | 6.4 | 0.00 | 0.00 | 0.00 | 76 | 1021.0 |
| 20260906061504 | 23 | 0 | 0.0 | 0.0 | 0.00 | 0.00 | 0.00 | 76 | 1020.8 |
| 20260906060006 | 22 | 14 | 3.2 | 6.4 | 0.00 | 0.00 | 0.00 | 77 | 1020.5 |
| 20260906054504 | 22 | 0 | 0.0 | 0.0 | 0.00 | 0.00 | 0.00 | 78 | 1020.5 |
| 20260906053007 | 22 | 0 | 0.0 | 0.0 | 0.00 | 0.00 | 0.00 | 81 | 1020.3 |
| 20260905231504 | 22 | 0 | 0.0 | 0.0 | 0.00 | 0.00 | 0.00 | 89 | 1018.5 |
| 20260905230008 | 22 | 0 | 0.0 | 0.0 | 0.00 | 0.00 | 0.00 | 89 | 1018.4 |
| 20260905224504 | 22 | 0 | 0.0 | 0.0 | 0.00 | 0.00 | 0.00 | 88 | 1018.3 |
| 20260905221505 | 22 | 0 | 0.0 | 0.0 | 0.00 | 0.00 | 0.00 | 87 | 1018.1 |
| 20260905220007 | 22 | 0 | 0.0 | 0.0 | 0.00 | 0.00 | 0.00 | 86 | 1017.9 |
| 20260905214504 | 23 | 0 | 0.0 | 0.0 | 0.00 | 0.00 | 0.00 | 85 | 1017.8 |
| 20260905213007 | 23 | 0 | 0.0 | 0.0 | 0.00 | 0.00 | 0.00 | 85 | 1017.7 |
| 20260905211505 | 23 | 0 | 0.0 | 0.0 | 0.00 | 0.00 | 0.00 | 85 | 1017.7 |
| 20260905210007 | 23 | 0 | 0.0 | 0.0 | 0.00 | 0.00 | 0.00 | 83 | 1017.5 |
| 20260905204505 | 24 | 0 | 0.0 | 0.0 | 0.00 | 0.00 | 0.00 | 82 | 1017.5 |
| 20260905203007 | 25 | 128 | 0.0 | 4.8 | 0.00 | 0.00 | 0.00 | 81 | 1017.5 |
| 20260905201506 | 25 | 135 | 1.6 | 4.8 | 0.00 | 0.00 | 0.00 | 81 | 1017.3 |
| 20260905200006 | 26 | 122 | 4.8 | 6.4 | 0.00 | 0.00 | 0.00 | 80 | 1017.3 |
| 20260905194504 | 26 | 136 | 6.4 | 9.7 | 0.00 | 0.00 | 0.00 | 79 | 1017.3 |
| 20260905193008 | 26 | 135 | 4.8 | 6.4 | 0.00 | 0.00 | 0.00 | 78 | 1016.8 |
| 20260905191506 | 26 | 135 | 6.4 | 8.0 | 0.00 | 0.00 | 0.00 | 76 | 1016.7 |
| 20260905190006 | 26 | 127 | 6.4 | 9.7 | 0.00 | 0.00 | 0.00 | 74 | 1016.5 |
| 20260905184505 | 27 | 117 | 4.8 | 8.0 | 0.00 | 0.00 | 0.00 | 72 | 1016.2 |
| 20260905183007 | 27 | 123 | 4.8 | 9.7 | 0.00 | 0.00 | 0.00 | 66 | 1016.0 |
| 20260905181504 | 27 | 0 | 0.0 | 0.0 | 0.00 | 0.00 | 0.00 | 61 | 1015.7 |
| 20260905180007 | 28 | 0 | 0.0 | 0.0 | 0.00 | 0.00 | 0.00 | 59 | 1015.5 |
| 20260905174504 | 28 | 0 | 0.0 | 0.0 | 0.00 | 0.00 | 0.00 | 57 | 1015.5 |
| 20260905173006 | 30 | 0 | 0.0 | 0.0 | 0.00 | 0.00 | 0.00 | 56 | 1015.3 |
| 20260905171505 | 31 | 0 | 0.0 | 0.0 | 0.00 | 0.00 | 0.00 | 51 | 1015.2 |
| 20260905170006 | 34 | 0 | 0.0 | 0.0 | 0.00 | 0.00 | 0.00 | 48 | 1015.1 |
| 20260905164504 | 36 | 0 | 0.0 | 0.0 | 0.00 | 0.00 | 0.00 | 47 | 1015.2 |
| 20260905163007 | 35 | 0 | 0.0 | 0.0 | 0.00 | 0.00 | 0.00 | 46 | 1015.0 |
| 20260905161505 | 35 | 0 | 0.0 | 0.0 | 0.00 | 0.00 | 0.00 | 45 | 1015.1 |
| 20260905160007 | 35 | 314 | 0.0 | 3.2 | 0.00 | 0.00 | 0.00 | 45 | 1015.0 |
| 20260905154504 | 35 | 332 | 3.2 | 9.7 | 0.00 | 0.00 | 0.00 | 45 | 1014.7 |
| 20260905153007 | 35 | 270 | 0.0 | 3.2 | 0.00 | 0.00 | 0.00 | 44 | 1014.5 |
| 20260905151504 | 35 | 286 | 1.6 | 6.4 | 0.00 | 0.00 | 0.00 | 43 | 1014.7 |
| 20260905150007 | 35 | 299 | 3.2 | 6.4 | 0.00 | 0.00 | 0.00 | 43 | 1014.8 |
| 20260905144504 | 35 | 311 | 4.8 | 9.7 | 0.00 | 0.00 | 0.00 | 44 | 1014.8 |
| 20260905143006 | 35 | 305 | 1.6 | 8.0 | 0.00 | 0.00 | 0.00 | 44 | 1014.9 |
| 20260905141504 | 35 | 284 | 6.4 | 8.0 | 0.00 | 0.00 | 0.00 | 43 | 1014.8 |
| 20260905140007 | 35 | 298 | 1.6 | 3.2 | 0.00 | 0.00 | 0.00 | 43 | 1015.0 |
| 20260905134504 | 35 | 282 | 3.2 | 8.0 | 0.00 | 0.00 | 0.00 | 43 | 1015.2 |
| 20260905133006 | 35 | 289 | 3.2 | 6.4 | 0.00 | 0.00 | 0.00 | 45 | 1015.2 |
| 20260905131504 | 35 | 270 | 4.8 | 11.3 | 0.00 | 0.00 | 0.00 | 45 | 1015.4 |
| 20260905130006 | 35 | 0 | 0.0 | 0.0 | 0.00 | 0.00 | 0.00 | 48 | 1015.4 |
| 20260905124505 | 34 | 292 | 1.6 | 4.8 | 0.00 | 0.00 | 0.00 | 49 | 1015.8 |
| 20260905123006 | 34 | 287 | 6.4 | 11.3 | 0.00 | 0.00 | 0.00 | 49 | 1015.9 |
| 20260905121504 | 34 | 5 | 4.8 | 11.3 | 0.00 | 0.00 | 0.00 | 49 | 1016.0 |
| 20260905120006 | 33 | 337 | 0.0 | 3.2 | 0.00 | 0.00 | 0.00 | 52 | 1016.1 |
| 20260905114504 | 33 | 254 | 1.6 | 4.8 | 0.00 | 0.00 | 0.00 | 50 | 1016.2 |
| 20260905113007 | 33 | 323 | 4.8 | 8.0 | 0.00 | 0.00 | 0.00 | 52 | 1016.3 |
| 20260905111505 | 33 | 299 | 6.4 | 9.7 | 0.00 | 0.00 | 0.00 | 50 | 1016.2 |
| 20260905110006 | 32 | 344 | 3.2 | 8.0 | 0.00 | 0.00 | 0.00 | 52 | 1016.4 |
| 20260905104504 | 33 | 314 | 1.6 | 8.0 | 0.00 | 0.00 | 0.00 | 53 | 1016.4 |
| 20260905103006 | 31 | 319 | 3.2 | 9.7 | 0.00 | 0.00 | 0.00 | 55 | 1016.3 |